Time;durP1;ratioP1;P1;durP2;ratioP2;P2;SDS_P1;SDS_P2;PMS_P1;PMS_P2;Temp;Humidity;BMP_temperature;BMP_pressure;BME280_temperature;BME280_humidity;BME280_pressure;Samples;Min_cycle;Max_cycle;Signal;HPM_P1;HPM_P2
2023/12/24 06:01:07;;;;;;;1.33;1.00;;;;;;;;;;5917189;23;20510;-77
2023/12/24 06:03:33;;;;;;;1.30;1.20;;;;;;;;;;4976239;28;20420;-77
2023/12/24 06:05:59;;;;;;;0.90;0.80;;;;;;;;;;4976438;28;20833;-76
2023/12/24 06:08:25;;;;;;;1.33;0.90;;;;;;;;;;4976276;28;20830;-76
2023/12/24 06:10:51;;;;;;;1.00;0.90;;;;;;;;;;4976260;28;20424;-76
2023/12/24 06:13:17;;;;;;;2.30;1.03;;;;;;;;;;4975115;28;20419;-77
2023/12/24 06:15:43;;;;;;;1.57;1.20;;;;;;;;;;4974949;28;20447;-76
2023/12/24 06:18:10;;;;;;;1.93;1.20;;;;;;;;;;4976089;28;20424;-76
2023/12/24 06:20:37;;;;;;;0.80;0.70;;;;;;;;;;4975972;28;20432;-76
2023/12/24 06:23:03;;;;;;;1.10;1.00;;;;;;;;;;4974347;28;20516;-77
2023/12/24 06:25:29;;;;;;;1.13;0.90;;;;;;;;;;4974016;28;20470;-76
2023/12/24 06:27:55;;;;;;;1.20;1.07;;;;;;;;;;4975784;28;20408;-76
2023/12/24 06:30:21;;;;;;;1.03;0.93;;;;;;;;;;4975575;28;20468;-76
2023/12/24 06:32:48;;;;;;;1.20;0.90;;;;;;;;;;4975819;28;20892;-77
2023/12/24 06:35:14;;;;;;;1.00;0.90;;;;;;;;;;4975717;28;20983;-76
2023/12/24 06:37:40;;;;;;;1.70;1.00;;;;;;;;;;4975731;28;20408;-77
2023/12/24 06:40:06;;;;;;;0.90;0.80;;;;;;;;;;4975574;28;20914;-77
2023/12/24 06:42:32;;;;;;;1.43;1.10;;;;;;;;;;4975306;28;20921;-76
2023/12/24 06:44:58;;;;;;;1.03;1.00;;;;;;;;;;4975496;28;20491;-77
2023/12/24 06:47:24;;;;;;;1.27;0.80;;;;;;;;;;4975427;28;20954;-77
2023/12/24 06:49:50;;;;;;;1.03;0.90;;;;;;;;;;4974205;28;20415;-77
2023/12/24 06:52:16;;;;;;;1.00;0.90;;;;;;;;;;4975155;28;20951;-77
2023/12/24 06:54:42;;;;;;;1.00;0.90;;;;;;;;;;4974019;28;21072;-77
2023/12/24 06:57:08;;;;;;;1.10;1.00;;;;;;;;;;4975302;28;20511;-77
2023/12/24 06:59:34;;;;;;;1.20;1.00;;;;;;;;;;4975267;28;20452;-76
2023/12/24 07:02:00;;;;;;;2.07;1.17;;;;;;;;;;4973663;28;20456;-76
2023/12/24 07:04:26;;;;;;;1.33;0.90;;;;;;;;;;4975191;28;20423;-77
2023/12/24 07:06:52;;;;;;;0.97;0.87;;;;;;;;;;4975220;28;20416;-77
2023/12/24 07:09:18;;;;;;;0.80;0.80;;;;;;;;;;4975015;28;20416;-77
2023/12/24 07:11:44;;;;;;;2.70;1.10;;;;;;;;;;4974877;28;20523;-76
2023/12/24 07:14:10;;;;;;;1.90;0.90;;;;;;;;;;4991988;28;20412;-76
2023/12/24 07:16:36;;;;;;;2.50;1.00;;;;;;;;;;4990474;28;20415;-76
2023/12/24 07:19:07;;;;;;;0.93;0.90;;;;;;;;;;4989749;28;20420;-77
2023/12/24 07:21:33;;;;;;;0.83;0.73;;;;;;;;;;4974736;28;20543;-76
2023/12/24 07:23:59;;;;;;;1.50;1.20;;;;;;;;;;4975359;28;20506;-76
2023/12/24 07:26:25;;;;;;;1.93;1.23;;;;;;;;;;4979216;28;20474;-76
2023/12/24 07:28:52;;;;;;;0.93;0.83;;;;;;;;;;4978093;28;20420;-75
2023/12/24 07:31:18;;;;;;;3.13;0.93;;;;;;;;;;4977433;28;20443;-76
2023/12/24 07:33:44;;;;;;;2.20;1.17;;;;;;;;;;4975550;28;20440;-76
2023/12/24 07:36:10;;;;;;;1.80;1.20;;;;;;;;;;4975472;28;20456;-76
2023/12/24 07:38:36;;;;;;;1.87;1.10;;;;;;;;;;4978534;28;20423;-78
2023/12/24 07:41:03;;;;;;;1.07;0.93;;;;;;;;;;4983840;28;20444;-76
2023/12/24 07:43:29;;;;;;;1.10;0.80;;;;;;;;;;4977125;28;20428;-76
2023/12/24 07:45:56;;;;;;;3.13;1.20;;;;;;;;;;4974861;28;20822;-77
2023/12/24 07:48:24;;;;;;;2.40;1.30;;;;;;;;;;4974742;28;20468;-77
2023/12/24 07:50:49;;;;;;;1.73;1.33;;;;;;;;;;4968149;28;20963;-76
2023/12/24 07:53:15;;;;;;;2.60;1.40;;;;;;;;;;4969593;28;20423;-77
2023/12/24 07:55:41;;;;;;;1.73;1.20;;;;;;;;;;4973461;28;20415;-77
2023/12/24 07:58:07;;;;;;;1.00;0.93;;;;;;;;;;4973508;28;20792;-76
2023/12/24 08:00:33;;;;;;;1.07;0.97;;;;;;;;;;4974144;28;20440;-77
2023/12/24 08:02:59;;;;;;;1.77;1.00;;;;;;;;;;4972507;28;20530;-76
2023/12/24 08:05:25;;;;;;;1.57;1.23;;;;;;;;;;4973771;28;20460;-76
2023/12/24 08:07:51;;;;;;;1.10;1.00;;;;;;;;;;4973915;28;20408;-76
2023/12/24 08:10:17;;;;;;;1.00;0.90;;;;;;;;;;4973688;28;20495;-76
2023/12/24 08:12:43;;;;;;;1.37;1.10;;;;;;;;;;4973989;28;20536;-75
2023/12/24 08:15:09;;;;;;;1.03;1.00;;;;;;;;;;4975180;28;20408;-77
2023/12/24 08:17:35;;;;;;;1.57;1.00;;;;;;;;;;4973820;28;20479;-76
2023/12/24 08:20:02;;;;;;;1.00;0.90;;;;;;;;;;4973650;28;20419;-75
2023/12/24 08:22:28;;;;;;;1.07;1.00;;;;;;;;;;4972301;28;20955;-77
2023/12/24 08:24:54;;;;;;;0.87;0.80;;;;;;;;;;4972402;28;20463;-77
2023/12/24 08:27:21;;;;;;;1.10;1.03;;;;;;;;;;4973584;28;20498;-76
2023/12/24 08:29:47;;;;;;;2.80;1.07;;;;;;;;;;4973513;28;20412;-75
2023/12/24 08:32:13;;;;;;;0.90;0.80;;;;;;;;;;4971877;28;20444;-75
2023/12/24 08:34:39;;;;;;;0.80;0.70;;;;;;;;;;4974042;28;20419;-76
2023/12/24 08:37:05;;;;;;;0.80;0.70;;;;;;;;;;4972240;28;20456;-76
2023/12/24 08:39:31;;;;;;;0.80;0.80;;;;;;;;;;4973189;28;20408;-77
2023/12/24 08:41:57;;;;;;;0.83;0.73;;;;;;;;;;4973058;28;20431;-76
2023/12/24 08:44:23;;;;;;;0.83;0.80;;;;;;;;;;4973207;28;20440;-76
2023/12/24 08:46:49;;;;;;;0.90;0.80;;;;;;;;;;4972894;28;20463;-76
2023/12/24 08:49:15;;;;;;;0.93;0.90;;;;;;;;;;4973082;28;20486;-76
2023/12/24 08:51:42;;;;;;;1.13;0.80;;;;;;;;;;4974457;28;20431;-76
2023/12/24 08:54:08;;;;;;;0.80;0.70;;;;;;;;;;4974169;28;20927;-76
2023/12/24 08:56:34;;;;;;;0.90;0.80;;;;;;;;;;4973590;28;20416;-76
2023/12/24 08:59:00;;;;;;;1.13;0.90;;;;;;;;;;4973505;28;20466;-75
2023/12/24 09:01:26;;;;;;;0.97;0.90;;;;;;;;;;4972096;28;20849;-75
2023/12/24 09:03:52;;;;;;;1.20;1.10;;;;;;;;;;4973338;28;20521;-76
2023/12/24 09:06:18;;;;;;;1.43;1.33;;;;;;;;;;4973029;28;20463;-76
2023/12/24 09:08:44;;;;;;;1.00;0.90;;;;;;;;;;4973188;28;20411;-76
2023/12/24 09:11:10;;;;;;;0.87;0.80;;;;;;;;;;4973010;28;20438;-75
2023/12/24 09:13:36;;;;;;;1.03;0.70;;;;;;;;;;4973249;28;20812;-76
2023/12/24 09:16:03;;;;;;;0.80;0.70;;;;;;;;;;4973037;28;20415;-76
2023/12/24 09:18:29;;;;;;;1.37;1.00;;;;;;;;;;4972902;28;20416;-76
2023/12/24 09:20:55;;;;;;;1.10;1.00;;;;;;;;;;4972743;28;20435;-77
2023/12/24 09:23:21;;;;;;;0.80;0.70;;;;;;;;;;4972584;28;20443;-76
2023/12/24 09:25:47;;;;;;;1.43;0.83;;;;;;;;;;4972846;28;20506;-76
2023/12/24 09:28:14;;;;;;;0.80;0.80;;;;;;;;;;4971557;28;20943;-76
2023/12/24 09:30:39;;;;;;;1.47;1.33;;;;;;;;;;4972736;28;20431;-78
2023/12/24 09:33:06;;;;;;;3.03;1.17;;;;;;;;;;4972558;28;20858;-76
2023/12/24 09:35:32;;;;;;;1.63;0.90;;;;;;;;;;4972877;28;20423;-77
2023/12/24 09:37:58;;;;;;;0.90;0.73;;;;;;;;;;4972900;28;20415;-77
2023/12/24 09:40:24;;;;;;;1.10;1.00;;;;;;;;;;4972560;28;20507;-78
2023/12/24 09:42:50;;;;;;;0.77;0.73;;;;;;;;;;4971319;28;20487;-77
2023/12/24 09:45:16;;;;;;;0.83;0.80;;;;;;;;;;4971384;28;20466;-77
2023/12/24 09:47:42;;;;;;;0.83;0.80;;;;;;;;;;4972769;28;20502;-77
2023/12/24 09:50:08;;;;;;;2.40;0.90;;;;;;;;;;4972714;28;20419;-77
2023/12/24 09:52:34;;;;;;;2.23;1.07;;;;;;;;;;4970694;28;20416;-77
2023/12/24 09:55:01;;;;;;;4.00;1.20;;;;;;;;;;4972543;28;20791;-77
2023/12/24 09:57:27;;;;;;;4.73;1.20;;;;;;;;;;4972315;28;20408;-77
2023/12/24 09:59:53;;;;;;;1.13;1.00;;;;;;;;;;4974785;28;20559;-77
2023/12/24 10:02:19;;;;;;;1.03;1.03;;;;;;;;;;4974784;28;20463;-76
2023/12/24 10:04:45;;;;;;;1.30;1.10;;;;;;;;;;4977875;28;20961;-77
2023/12/24 10:07:11;;;;;;;3.07;1.00;;;;;;;;;;4976822;28;20430;-77
2023/12/24 10:09:49;;;;;;;0.90;0.90;;;;;;;;;;4976176;28;20899;-77
2023/12/24 10:12:15;;;;;;;2.37;1.17;;;;;;;;;;4975568;28;20526;-77
2023/12/24 10:14:49;;;;;;;3.10;1.20;;;;;;;;;;4975905;28;20560;-77
2023/12/24 10:17:27;;;;;;;1.10;1.00;;;;;;;;;;4975899;28;20404;-77
2023/12/24 10:19:53;;;;;;;2.90;1.40;;;;;;;;;;4975795;28;20416;-76
2023/12/24 10:22:23;;;;;;;1.00;0.90;;;;;;;;;;4975649;28;20432;-76
2023/12/24 10:24:49;;;;;;;1.10;0.97;;;;;;;;;;4974445;28;20451;-76
2023/12/24 10:27:15;;;;;;;0.90;0.90;;;;;;;;;;4974422;28;20469;-77
2023/12/24 10:29:42;;;;;;;0.97;0.87;;;;;;;;;;4974453;28;20417;-76
2023/12/24 10:32:10;;;;;;;2.50;1.10;;;;;;;;;;4975439;28;20431;-76
2023/12/24 10:34:37;;;;;;;2.07;1.03;;;;;;;;;;4974283;28;20454;-76
2023/12/24 10:37:19;;;;;;;1.00;0.93;;;;;;;;;;4975390;28;20412;-77
2023/12/24 10:39:45;;;;;;;1.27;1.00;;;;;;;;;;4975482;28;20410;-76
2023/12/24 10:42:11;;;;;;;0.90;0.80;;;;;;;;;;4975182;28;20432;-76
2023/12/24 10:44:39;;;;;;;1.57;1.10;;;;;;;;;;4975536;28;20422;-75
2023/12/24 10:47:05;;;;;;;0.80;0.70;;;;;;;;;;4975392;28;20471;-76
2023/12/24 10:49:31;;;;;;;0.87;0.77;;;;;;;;;;4975377;28;20912;-76
2023/12/24 10:51:59;;;;;;;1.77;1.03;;;;;;;;;;4975170;28;20462;-76
2023/12/24 10:54:26;;;;;;;1.67;1.07;;;;;;;;;;4975509;28;20412;-77
2023/12/24 10:56:52;;;;;;;1.33;0.90;;;;;;;;;;4975405;28;20408;-76
2023/12/24 10:59:23;;;;;;;1.60;1.20;;;;;;;;;;4975259;28;20845;-77
2023/12/24 11:01:50;;;;;;;0.90;0.80;;;;;;;;;;4974683;28;20462;-75
2023/12/24 11:04:34;;;;;;;1.20;1.00;;;;;;;;;;4973744;28;20430;-76
2023/12/24 11:07:04;;;;;;;1.03;0.93;;;;;;;;;;4974820;28;20857;-75
2023/12/24 11:09:30;;;;;;;1.03;1.03;;;;;;;;;;4974028;28;20423;-76
2023/12/24 11:11:56;;;;;;;1.17;0.90;;;;;;;;;;4975097;28;20423;-76
2023/12/24 11:14:44;;;;;;;1.20;0.80;;;;;;;;;;4967836;28;20973;-76
2023/12/24 11:17:11;;;;;;;0.90;0.90;;;;;;;;;;4973742;28;20419;-75
2023/12/24 11:19:41;;;;;;;0.93;0.90;;;;;;;;;;4973813;28;20428;-75
2023/12/24 11:22:07;;;;;;;0.93;0.87;;;;;;;;;;4974450;28;20984;-76
2023/12/24 11:24:34;;;;;;;3.07;1.20;;;;;;;;;;4974137;28;20416;-77
2023/12/24 11:27:00;;;;;;;1.83;0.80;;;;;;;;;;4981406;28;20769;-76
2023/12/24 11:29:38;;;;;;;1.03;0.90;;;;;;;;;;4974515;28;20414;-76
2023/12/24 11:32:23;;;;;;;1.07;0.93;;;;;;;;;;4974081;28;20964;-76
2023/12/24 11:34:49;;;;;;;3.03;1.20;;;;;;;;;;4970940;28;20473;-76
2023/12/24 11:37:26;;;;;;;0.97;0.87;;;;;;;;;;4969304;28;20479;-76
2023/12/24 11:40:05;;;;;;;0.93;0.70;;;;;;;;;;4974107;28;20418;-77
2023/12/24 11:42:45;;;;;;;1.33;0.90;;;;;;;;;;4973096;28;20530;-76
2023/12/24 11:45:21;;;;;;;1.03;0.90;;;;;;;;;;4974724;28;20548;-77
2023/12/24 11:47:48;;;;;;;1.20;1.10;;;;;;;;;;4974131;28;20418;-76
2023/12/24 11:50:14;;;;;;;0.90;0.87;;;;;;;;;;4979084;28;20426;-76
2023/12/24 11:52:44;;;;;;;0.90;0.80;;;;;;;;;;4985671;28;20416;-76
2023/12/24 11:55:13;;;;;;;2.93;0.97;;;;;;;;;;4987151;28;20407;-78
2023/12/24 11:57:39;;;;;;;1.10;0.90;;;;;;;;;;4975406;28;20420;-76
2023/12/24 12:00:06;;;;;;;0.87;0.77;;;;;;;;;;4974341;28;20842;-76
2023/12/24 12:02:32;;;;;;;0.83;0.80;;;;;;;;;;4973734;28;20478;-77
2023/12/24 12:04:58;;;;;;;1.27;0.80;;;;;;;;;;4973856;28;20958;-76
2023/12/24 12:07:25;;;;;;;0.80;0.70;;;;;;;;;;4974204;28;20518;-76
2023/12/24 12:09:51;;;;;;;2.30;0.80;;;;;;;;;;4973547;28;20491;-77
2023/12/24 12:12:17;;;;;;;0.80;0.70;;;;;;;;;;4972079;28;20451;-76
2023/12/24 12:14:43;;;;;;;0.90;0.80;;;;;;;;;;4978568;28;20408;-76
2023/12/24 12:17:09;;;;;;;1.07;0.80;;;;;;;;;;4972432;28;20423;-76
2023/12/24 12:19:35;;;;;;;1.00;1.00;;;;;;;;;;4973465;28;20430;-76
2023/12/24 12:22:01;;;;;;;0.83;0.77;;;;;;;;;;4972840;28;20420;-77
2023/12/24 12:24:27;;;;;;;1.43;0.90;;;;;;;;;;4973738;28;20400;-76
2023/12/24 12:26:53;;;;;;;2.60;1.03;;;;;;;;;;4973612;28;20542;-77
2023/12/24 12:29:19;;;;;;;0.80;0.70;;;;;;;;;;4972024;28;20857;-77
2023/12/24 12:31:45;;;;;;;0.80;0.80;;;;;;;;;;4973508;28;20431;-77
2023/12/24 12:34:11;;;;;;;0.97;0.90;;;;;;;;;;4973303;28;20408;-76
2023/12/24 12:36:36;;;;;;;0.97;0.83;;;;;;;;;;4972003;28;20427;-77
2023/12/24 12:39:03;;;;;;;0.80;0.80;;;;;;;;;;4972127;28;20900;-78
2023/12/24 12:41:29;;;;;;;1.07;0.97;;;;;;;;;;4971818;28;20452;-77
2023/12/24 12:43:55;;;;;;;0.80;0.70;;;;;;;;;;4972103;28;20428;-77
2023/12/24 12:46:21;;;;;;;0.80;0.70;;;;;;;;;;4973205;28;20460;-77
2023/12/24 12:48:47;;;;;;;0.97;0.87;;;;;;;;;;4973083;28;20439;-77
2023/12/24 12:51:13;;;;;;;0.93;0.83;;;;;;;;;;4972973;28;20486;-76
2023/12/24 12:53:39;;;;;;;0.90;0.80;;;;;;;;;;4973202;28;20463;-75
2023/12/24 12:56:07;;;;;;;0.77;0.73;;;;;;;;;;4973639;28;20407;-79
2023/12/24 12:58:33;;;;;;;1.83;0.70;;;;;;;;;;4974530;28;20419;-80
2023/12/24 13:00:59;;;;;;;0.83;0.80;;;;;;;;;;4973110;28;20510;-76
2023/12/24 13:03:26;;;;;;;1.23;1.00;;;;;;;;;;4972938;28;20419;-76
2023/12/24 13:05:54;;;;;;;0.73;0.70;;;;;;;;;;4973255;28;20890;-76
2023/12/24 13:08:20;;;;;;;0.90;0.80;;;;;;;;;;4973093;28;20408;-73
2023/12/24 13:10:46;;;;;;;1.97;1.37;;;;;;;;;;4973099;28;20802;-73
2023/12/24 13:13:17;;;;;;;1.13;1.00;;;;;;;;;;4973907;28;20416;-70
2023/12/24 13:15:43;;;;;;;1.10;1.00;;;;;;;;;;4972978;28;20407;-68
2023/12/24 13:18:16;;;;;;;1.93;1.07;;;;;;;;;;4973012;28;20423;-74
2023/12/24 13:20:43;;;;;;;0.90;0.90;;;;;;;;;;4973152;28;20963;-74
2023/12/24 13:23:09;;;;;;;0.70;0.63;;;;;;;;;;4972969;28;20419;-75
2023/12/24 13:25:39;;;;;;;0.83;0.70;;;;;;;;;;4971515;28;20467;-77
2023/12/24 13:28:05;;;;;;;0.80;0.70;;;;;;;;;;4972920;28;20859;-75
2023/12/24 13:30:31;;;;;;;1.70;0.90;;;;;;;;;;4972749;28;20931;-75
2023/12/24 13:32:57;;;;;;;0.73;0.70;;;;;;;;;;4972670;28;20422;-75
2023/12/24 13:35:23;;;;;;;0.77;0.67;;;;;;;;;;4976149;28;20518;-75
2023/12/24 13:37:49;;;;;;;2.07;0.83;;;;;;;;;;4976902;28;20426;-75
2023/12/24 13:40:15;;;;;;;1.00;0.80;;;;;;;;;;4976483;28;20862;-75
2023/12/24 13:42:41;;;;;;;0.80;0.70;;;;;;;;;;4976513;28;20419;-75
2023/12/24 13:45:08;;;;;;;0.77;0.70;;;;;;;;;;4977838;28;20470;-75
2023/12/24 13:47:34;;;;;;;0.80;0.70;;;;;;;;;;4976451;28;20929;-75
2023/12/24 13:50:00;;;;;;;0.87;0.77;;;;;;;;;;4975139;28;20411;-75
2023/12/24 13:52:26;;;;;;;2.90;1.00;;;;;;;;;;4974848;28;20428;-75
2023/12/24 13:54:52;;;;;;;1.13;1.10;;;;;;;;;;4974979;28;20423;-75
2023/12/24 13:57:18;;;;;;;0.90;0.80;;;;;;;;;;4974809;28;20407;-74
2023/12/24 13:59:44;;;;;;;0.90;0.80;;;;;;;;;;4975117;28;20477;-76
2023/12/24 14:02:10;;;;;;;1.17;1.00;;;;;;;;;;4975782;28;21001;-76
2023/12/24 14:04:36;;;;;;;1.60;0.90;;;;;;;;;;4976147;28;20424;-74
2023/12/24 14:07:02;;;;;;;1.00;0.90;;;;;;;;;;4976071;28;20463;-74
2023/12/24 14:09:28;;;;;;;0.90;0.80;;;;;;;;;;4976215;28;20539;-74
2023/12/24 14:11:54;;;;;;;1.73;0.97;;;;;;;;;;4974597;28;20978;-74
2023/12/24 14:14:20;;;;;;;1.10;1.00;;;;;;;;;;4974892;28;20994;-74
2023/12/24 14:16:48;;;;;;;0.97;0.87;;;;;;;;;;4976013;28;20892;-75
2023/12/24 14:19:14;;;;;;;0.80;0.70;;;;;;;;;;4975587;28;20411;-74
2023/12/24 14:21:40;;;;;;;2.13;0.80;;;;;;;;;;4975941;28;20831;-74
2023/12/24 14:24:06;;;;;;;0.83;0.73;;;;;;;;;;4975813;28;20430;-74
2023/12/24 14:26:32;;;;;;;0.90;0.80;;;;;;;;;;4975627;28;20462;-74
2023/12/24 14:28:58;;;;;;;1.33;1.00;;;;;;;;;;4975636;28;20752;-75
2023/12/24 14:31:24;;;;;;;0.80;0.70;;;;;;;;;;4975236;28;20498;-75
2023/12/24 14:33:49;;;;;;;0.90;0.80;;;;;;;;;;4975684;28;20419;-74
2023/12/24 14:36:15;;;;;;;0.97;0.90;;;;;;;;;;4975478;28;20416;-74
2023/12/24 14:38:41;;;;;;;1.47;0.90;;;;;;;;;;4975481;28;20420;-75
2023/12/24 14:41:07;;;;;;;0.90;0.80;;;;;;;;;;4975354;28;20483;-74
2023/12/24 14:43:33;;;;;;;1.13;1.00;;;;;;;;;;4975583;28;20427;-74
2023/12/24 14:46:00;;;;;;;1.03;0.83;;;;;;;;;;4991421;28;20468;-74
2023/12/24 14:48:26;;;;;;;0.90;0.80;;;;;;;;;;4976087;28;20432;-74
2023/12/24 14:50:52;;;;;;;3.43;1.13;;;;;;;;;;4975583;28;20423;-74
2023/12/24 14:53:18;;;;;;;0.80;0.70;;;;;;;;;;4975315;28;20422;-74
2023/12/24 14:55:44;;;;;;;0.90;0.80;;;;;;;;;;4975381;28;20471;-74
2023/12/24 14:58:10;;;;;;;1.00;0.90;;;;;;;;;;4982769;28;20412;-74
2023/12/24 15:00:36;;;;;;;1.10;1.00;;;;;;;;;;4984936;28;20423;-74
2023/12/24 15:03:02;;;;;;;1.73;0.93;;;;;;;;;;4975158;28;20727;-74
2023/12/24 15:05:28;;;;;;;1.00;0.93;;;;;;;;;;4975444;28;20598;-74
2023/12/24 15:07:55;;;;;;;0.83;0.73;;;;;;;;;;4975205;28;20408;-74
2023/12/24 15:10:20;;;;;;;1.40;0.93;;;;;;;;;;4975140;28;20475;-74
2023/12/24 15:12:46;;;;;;;1.77;1.30;;;;;;;;;;4988829;28;20412;-74
2023/12/24 15:15:13;;;;;;;0.90;0.90;;;;;;;;;;4975825;28;20416;-74
2023/12/24 15:17:39;;;;;;;1.13;1.03;;;;;;;;;;4975054;28;20420;-74
2023/12/24 15:20:05;;;;;;;0.80;0.70;;;;;;;;;;4975031;28;20438;-74
2023/12/24 15:22:31;;;;;;;1.93;0.90;;;;;;;;;;4974612;28;20438;-74
2023/12/24 15:24:57;;;;;;;1.90;0.90;;;;;;;;;;4973390;28;20412;-74
2023/12/24 15:27:23;;;;;;;0.73;0.70;;;;;;;;;;4974882;28;20412;-75
2023/12/24 15:29:49;;;;;;;0.90;0.80;;;;;;;;;;4974674;28;20423;-74
2023/12/24 15:32:15;;;;;;;0.90;0.80;;;;;;;;;;4973023;28;20436;-74
2023/12/24 15:34:41;;;;;;;0.90;0.80;;;;;;;;;;4974438;28;20423;-74
2023/12/24 15:37:07;;;;;;;4.60;0.80;;;;;;;;;;4975484;28;20496;-74
2023/12/24 15:39:33;;;;;;;1.10;1.00;;;;;;;;;;4973330;28;20420;-74
2023/12/24 15:42:00;;;;;;;1.07;0.90;;;;;;;;;;4974854;28;20475;-74
2023/12/24 15:44:26;;;;;;;1.00;0.90;;;;;;;;;;4974892;28;20502;-75
2023/12/24 15:46:52;;;;;;;0.90;0.80;;;;;;;;;;4974584;28;20463;-74
2023/12/24 15:49:18;;;;;;;0.83;0.80;;;;;;;;;;4974812;28;20515;-74
2023/12/24 15:51:44;;;;;;;1.00;0.80;;;;;;;;;;4974183;28;20534;-74
2023/12/24 15:54:10;;;;;;;0.70;0.60;;;;;;;;;;4974227;28;20412;-75
2023/12/24 15:56:39;;;;;;;3.40;1.93;;;;;;;;;;4973593;28;20415;-74
2023/12/24 15:59:04;;;;;;;1.27;1.13;;;;;;;;;;4973995;28;20426;-74
2023/12/24 16:01:30;;;;;;;2.50;1.20;;;;;;;;;;4973735;28;20558;-75
2023/12/24 16:03:56;;;;;;;1.33;1.10;;;;;;;;;;4974068;28;20420;-74
2023/12/24 16:06:22;;;;;;;1.10;1.00;;;;;;;;;;4973950;28;20486;-74
2023/12/24 16:08:52;;;;;;;0.90;0.80;;;;;;;;;;4973798;28;20414;-74
2023/12/24 16:11:19;;;;;;;0.93;0.83;;;;;;;;;;4973898;28;20796;-75
2023/12/24 16:13:45;;;;;;;1.00;0.90;;;;;;;;;;4973894;28;20418;-74
2023/12/24 16:16:11;;;;;;;1.10;1.00;;;;;;;;;;4972873;28;20423;-74
2023/12/24 16:18:37;;;;;;;1.00;0.90;;;;;;;;;;4973974;28;20427;-75
2023/12/24 16:21:03;;;;;;;2.10;1.10;;;;;;;;;;4974309;28;20489;-74
2023/12/24 16:23:29;;;;;;;1.10;1.00;;;;;;;;;;4973723;28;20415;-74
2023/12/24 16:25:55;;;;;;;2.97;1.67;;;;;;;;;;4976307;28;20474;-74
2023/12/24 16:28:21;;;;;;;1.33;1.13;;;;;;;;;;4990436;28;20411;-74
2023/12/24 16:30:47;;;;;;;1.03;0.93;;;;;;;;;;4989465;28;20487;-74
2023/12/24 16:33:13;;;;;;;1.00;0.90;;;;;;;;;;4978371;28;20419;-74
2023/12/24 16:35:39;;;;;;;2.40;1.30;;;;;;;;;;4972645;28;20431;-75
2023/12/24 16:38:04;;;;;;;1.20;1.10;;;;;;;;;;4973850;28;20428;-75
2023/12/24 16:40:30;;;;;;;2.77;1.63;;;;;;;;;;4972360;28;20492;-74
2023/12/24 16:42:56;;;;;;;4.17;2.20;;;;;;;;;;4973228;28;20424;-74
2023/12/24 16:45:23;;;;;;;1.13;1.10;;;;;;;;;;4973121;28;20462;-74
2023/12/24 16:47:49;;;;;;;1.80;1.03;;;;;;;;;;4973287;28;20430;-74
2023/12/24 16:50:16;;;;;;;1.00;1.00;;;;;;;;;;4973364;28;20447;-74
2023/12/24 16:52:43;;;;;;;1.83;1.23;;;;;;;;;;4971776;28;20416;-74
2023/12/24 16:55:09;;;;;;;0.93;0.83;;;;;;;;;;4973196;28;20424;-74
2023/12/24 16:57:35;;;;;;;1.60;0.73;;;;;;;;;;4973630;28;20420;-74
2023/12/24 17:00:01;;;;;;;0.90;0.80;;;;;;;;;;4973740;28;20415;-74
2023/12/24 17:02:27;;;;;;;1.60;0.87;;;;;;;;;;4971864;28;21045;-74
2023/12/24 17:04:54;;;;;;;2.00;1.10;;;;;;;;;;4973278;28;20423;-78
2023/12/24 17:07:20;;;;;;;1.30;1.20;;;;;;;;;;4974222;28;20444;-76
2023/12/24 17:09:49;;;;;;;4.73;1.10;;;;;;;;;;4979578;28;20412;-75
2023/12/24 17:12:15;;;;;;;0.80;0.70;;;;;;;;;;4979272;28;20838;-77
2023/12/24 17:14:41;;;;;;;2.60;1.07;;;;;;;;;;4979748;28;20407;-76
2023/12/24 17:17:07;;;;;;;1.20;1.10;;;;;;;;;;4979663;28;20766;-68
2023/12/24 17:19:33;;;;;;;1.50;1.20;;;;;;;;;;4979181;28;20415;-68
2023/12/24 17:21:59;;;;;;;1.40;1.30;;;;;;;;;;4978997;28;20486;-69
2023/12/24 17:24:25;;;;;;;1.70;1.07;;;;;;;;;;4979442;28;20419;-69
2023/12/24 17:26:51;;;;;;;3.90;1.47;;;;;;;;;;4979257;28;20491;-69
2023/12/24 17:29:18;;;;;;;1.00;0.90;;;;;;;;;;4979506;28;20494;-69
2023/12/24 17:31:44;;;;;;;2.30;1.60;;;;;;;;;;4979281;28;20522;-69
2023/12/24 17:34:10;;;;;;;3.00;1.30;;;;;;;;;;4979041;28;20411;-70
2023/12/24 17:36:36;;;;;;;1.90;1.07;;;;;;;;;;4968523;28;20500;-70
2023/12/24 17:39:03;;;;;;;2.10;1.07;;;;;;;;;;4964629;28;20503;-69
2023/12/24 17:41:29;;;;;;;1.43;1.13;;;;;;;;;;4959534;28;20432;-69
2023/12/24 17:43:55;;;;;;;1.47;1.10;;;;;;;;;;4959769;28;20466;-69
2023/12/24 17:46:21;;;;;;;2.40;1.10;;;;;;;;;;4959603;28;20466;-68
2023/12/24 17:48:47;;;;;;;2.07;1.33;;;;;;;;;;4959823;28;20416;-74
2023/12/24 17:51:14;;;;;;;1.47;1.20;;;;;;;;;;4959637;28;20432;-76
2023/12/24 17:53:39;;;;;;;1.77;1.53;;;;;;;;;;4960332;28;20487;-74
2023/12/24 17:56:05;;;;;;;5.77;1.60;;;;;;;;;;4960556;29;21060;-75
2023/12/24 17:58:31;;;;;;;3.03;1.73;;;;;;;;;;4960138;29;20404;-75
2023/12/24 18:00:57;;;;;;;2.20;1.20;;;;;;;;;;4959950;28;20439;-74
2023/12/24 18:03:23;;;;;;;1.67;1.57;;;;;;;;;;4960003;28;20424;-73
2023/12/24 18:05:49;;;;;;;2.20;1.30;;;;;;;;;;4958600;28;20468;-74
2023/12/24 18:08:15;;;;;;;1.90;1.40;;;;;;;;;;4960063;28;20491;-73
2023/12/24 18:10:41;;;;;;;1.67;1.40;;;;;;;;;;4960190;28;20452;-74
2023/12/24 18:13:07;;;;;;;3.70;1.43;;;;;;;;;;4960008;29;20412;-76
2023/12/24 18:15:33;;;;;;;1.90;1.60;;;;;;;;;;4960315;28;20412;-74
2023/12/24 18:17:59;;;;;;;1.50;1.40;;;;;;;;;;4967778;28;20425;-74
2023/12/24 18:20:25;;;;;;;1.70;1.57;;;;;;;;;;4976768;28;20404;-74
2023/12/24 18:22:51;;;;;;;2.70;1.37;;;;;;;;;;4975148;28;20439;-76
2023/12/24 18:25:17;;;;;;;2.60;2.23;;;;;;;;;;4978140;28;20455;-76
2023/12/24 18:27:43;;;;;;;1.80;1.70;;;;;;;;;;4977142;28;20440;-74
2023/12/24 18:30:10;;;;;;;2.50;1.63;;;;;;;;;;4976239;28;20420;-76
2023/12/24 18:32:35;;;;;;;5.77;1.80;;;;;;;;;;4972178;28;20444;-76
2023/12/24 18:35:02;;;;;;;2.30;1.87;;;;;;;;;;4977962;28;20427;-76
2023/12/24 18:37:29;;;;;;;11.97;4.43;;;;;;;;;;4976919;28;21092;-76
2023/12/24 18:39:55;;;;;;;3.17;1.97;;;;;;;;;;4976124;28;20926;-76
2023/12/24 18:42:21;;;;;;;2.20;1.20;;;;;;;;;;4976397;28;20513;-76
2023/12/24 18:44:47;;;;;;;1.70;1.50;;;;;;;;;;4977024;28;20441;-76
2023/12/24 18:47:13;;;;;;;4.37;1.53;;;;;;;;;;4975754;28;21003;-75
2023/12/24 18:49:42;;;;;;;1.50;1.40;;;;;;;;;;4977269;28;20518;-75
2023/12/24 18:52:08;;;;;;;3.57;1.33;;;;;;;;;;4976680;28;20428;-76
2023/12/24 18:54:34;;;;;;;1.90;1.23;;;;;;;;;;4981173;28;20415;-76
2023/12/24 18:57:01;;;;;;;2.03;1.57;;;;;;;;;;4984196;28;20431;-76
2023/12/24 18:59:27;;;;;;;7.20;1.30;;;;;;;;;;4983598;28;20503;-76
2023/12/24 19:01:53;;;;;;;3.30;1.40;;;;;;;;;;4981789;28;20483;-75
2023/12/24 19:04:19;;;;;;;1.33;1.30;;;;;;;;;;4976286;28;20946;-76
2023/12/24 19:06:45;;;;;;;1.70;1.23;;;;;;;;;;4964968;28;20481;-75
2023/12/24 19:09:11;;;;;;;2.70;1.30;;;;;;;;;;4972888;28;20409;-76
2023/12/24 19:11:37;;;;;;;4.30;1.50;;;;;;;;;;4960608;28;20440;-76
2023/12/24 19:14:03;;;;;;;2.60;1.30;;;;;;;;;;4975069;28;20411;-76
2023/12/24 19:16:32;;;;;;;1.70;1.20;;;;;;;;;;4974331;28;20996;-75
2023/12/24 19:18:58;;;;;;;2.23;1.80;;;;;;;;;;4975554;28;20411;-75
2023/12/24 19:21:24;;;;;;;3.60;1.47;;;;;;;;;;4975498;28;20436;-75
2023/12/24 19:23:50;;;;;;;3.50;1.70;;;;;;;;;;4975349;28;20416;-76
2023/12/24 19:26:16;;;;;;;2.93;1.53;;;;;;;;;;4975197;28;20498;-75
2023/12/24 19:28:42;;;;;;;2.30;1.23;;;;;;;;;;4975389;28;20403;-76
2023/12/24 19:31:11;;;;;;;1.80;1.13;;;;;;;;;;4974777;28;20432;-76
2023/12/24 19:33:37;;;;;;;1.80;1.53;;;;;;;;;;4975341;28;20447;-75
2023/12/24 19:36:03;;;;;;;3.80;1.27;;;;;;;;;;4975166;28;20448;-76
2023/12/24 19:38:29;;;;;;;1.90;1.27;;;;;;;;;;4975061;28;20783;-76
2023/12/24 19:40:55;;;;;;;3.50;1.70;;;;;;;;;;4975028;28;20435;-76
2023/12/24 19:43:21;;;;;;;4.90;1.30;;;;;;;;;;4974513;28;20760;-76
2023/12/24 19:45:47;;;;;;;1.53;1.20;;;;;;;;;;4974851;28;20471;-75
2023/12/24 19:48:15;;;;;;;1.50;1.40;;;;;;;;;;4975381;28;20478;-76
2023/12/24 19:50:41;;;;;;;2.20;1.27;;;;;;;;;;4975080;28;20447;-76
2023/12/24 19:53:07;;;;;;;1.67;1.60;;;;;;;;;;4974893;28;20436;-75
2023/12/24 19:55:33;;;;;;;1.50;1.40;;;;;;;;;;4974817;28;20779;-75
2023/12/24 19:57:59;;;;;;;5.90;1.53;;;;;;;;;;4974012;28;20431;-76
2023/12/24 20:00:25;;;;;;;1.80;1.70;;;;;;;;;;4975365;28;20846;-76
2023/12/24 20:02:51;;;;;;;1.43;1.37;;;;;;;;;;4973890;28;20538;-76
2023/12/24 20:05:17;;;;;;;1.77;1.30;;;;;;;;;;4975126;28;20455;-76
2023/12/24 20:07:43;;;;;;;2.30;1.43;;;;;;;;;;4975200;28;20503;-76
2023/12/24 20:10:09;;;;;;;5.63;2.30;;;;;;;;;;4974794;28;20411;-75
2023/12/24 20:12:35;;;;;;;1.27;1.27;;;;;;;;;;4974221;28;20462;-76
2023/12/24 20:15:01;;;;;;;1.87;1.30;;;;;;;;;;4974382;28;20499;-76
2023/12/24 20:17:27;;;;;;;2.10;1.30;;;;;;;;;;4974300;28;20408;-76
2023/12/24 20:19:53;;;;;;;2.40;1.60;;;;;;;;;;4973504;28;20503;-76
2023/12/24 20:22:24;;;;;;;2.60;1.33;;;;;;;;;;4974018;28;20523;-76
2023/12/24 20:24:50;;;;;;;3.20;1.67;;;;;;;;;;4972806;28;20475;-76
2023/12/24 20:27:19;;;;;;;1.83;1.33;;;;;;;;;;4974122;28;20499;-76
2023/12/24 20:29:50;;;;;;;6.70;1.80;;;;;;;;;;4974340;28;20474;-76
2023/12/24 20:32:16;;;;;;;5.03;1.10;;;;;;;;;;4974677;28;20923;-76
2023/12/24 20:34:42;;;;;;;1.43;1.20;;;;;;;;;;4975059;28;20408;-76
2023/12/24 20:37:08;;;;;;;2.30;1.70;;;;;;;;;;4976659;28;20846;-76
2023/12/24 20:39:34;;;;;;;2.37;1.53;;;;;;;;;;4974462;28;20512;-76